createdAt,value
2018-12-20T00:01:51.795Z,95067.11
2018-12-20T00:04:21.372Z,95058.38
2018-12-20T00:06:50.455Z,95061.46
2018-12-20T00:09:19.526Z,95056.69
2018-12-20T00:11:48.722Z,95060.52
2018-12-20T00:14:17.927Z,95059.48
2018-12-20T00:16:49.271Z,95060.20
2018-12-20T00:19:18.395Z,95058.38
2018-12-20T00:21:47.540Z,95066.91
2018-12-20T00:24:16.687Z,95063.09
2018-12-20T00:26:45.986Z,95067.27
2018-12-20T00:29:16.039Z,95069.78
2018-12-20T00:31:45.024Z,95073.91
2018-12-20T00:34:14.106Z,95073.23
2018-12-20T00:36:43.108Z,95074.55
2018-12-20T00:39:12.199Z,95075.14
2018-12-20T00:41:41.316Z,95078.05
2018-12-20T00:44:10.508Z,95083.34
2018-12-20T00:46:40.632Z,95080.11
2018-12-20T00:49:09.703Z,95091.16
2018-12-20T00:51:38.744Z,95093.37
2018-12-20T00:54:08.104Z,95097.63
2018-12-20T00:56:38.074Z,95095.00
2018-12-20T00:59:07.865Z,95096.33
2018-12-20T01:01:36.951Z,95097.47
2018-12-20T01:04:05.939Z,95096.26
2018-12-20T01:06:35.218Z,95100.41
2018-12-20T01:12:01.886Z,95109.96
2018-12-20T01:14:30.975Z,95110.44
2018-12-20T01:17:01.339Z,95113.42
2018-12-20T01:19:30.542Z,95107.20
2018-12-20T01:21:59.758Z,95117.88
2018-12-20T01:24:30.070Z,95121.05
2018-12-20T01:26:59.006Z,95118.97
2018-12-20T01:29:28.264Z,95128.78
2018-12-20T01:31:57.466Z,95122.31
2018-12-20T01:34:26.456Z,95120.53
2018-12-20T01:36:55.529Z,95125.28
2018-12-20T01:39:24.592Z,95126.41
2018-12-20T01:41:54.012Z,95128.21
2018-12-20T01:44:23.124Z,95130.01
2018-12-20T01:46:52.283Z,95131.44
2018-12-20T01:49:21.504Z,95118.21
2018-12-20T01:51:50.740Z,95127.30
2018-12-20T01:54:19.763Z,95124.29
2018-12-20T01:56:48.798Z,95122.51
2018-12-20T01:59:19.241Z,95130.02
2018-12-20T02:01:48.576Z,95119.97
2018-12-20T02:04:17.739Z,95126.50
2018-12-20T02:06:46.880Z,95121.40
2018-12-20T02:09:15.985Z,95127.44
2018-12-20T02:11:45.002Z,95127.41
2018-12-20T02:14:14.414Z,95126.96
2018-12-20T02:16:43.649Z,95129.02
2018-12-20T02:19:12.697Z,95125.19
2018-12-20T02:21:41.656Z,95117.23
2018-12-20T02:24:11.178Z,95128.20
2018-12-20T02:26:40.363Z,95125.54
2018-12-20T02:29:10.658Z,95128.69
2018-12-20T02:31:39.707Z,95122.80
2018-12-20T02:34:08.928Z,95128.84
2018-12-20T02:36:38.455Z,95118.69
2018-12-20T02:39:09.321Z,95124.38
2018-12-20T02:41:38.607Z,95125.33
2018-12-20T02:44:08.642Z,95128.73
2018-12-20T02:46:37.734Z,95132.36
2018-12-20T02:49:07.404Z,95140.88
2018-12-20T02:51:36.354Z,95130.63
2018-12-20T02:54:06.490Z,95133.34
2018-12-20T02:56:35.616Z,95139.61
2018-12-20T02:59:04.912Z,95137.39
2018-12-20T03:01:34.625Z,95138.07
2018-12-20T03:04:03.928Z,95142.46
2018-12-20T03:06:32.887Z,95141.53
2018-12-20T03:09:02.193Z,95141.22
2018-12-20T03:11:31.433Z,95138.67
2018-12-20T03:14:00.454Z,95135.12
2018-12-20T03:16:29.568Z,95138.33
2018-12-20T03:18:58.770Z,95135.38
2018-12-20T03:21:27.780Z,95136.69
2018-12-20T03:23:56.900Z,95144.31
2018-12-20T03:26:26.143Z,95143.09
2018-12-20T03:28:55.350Z,95140.17
2018-12-20T03:31:24.526Z,95138.94
2018-12-20T03:33:53.513Z,95142.44
2018-12-20T03:36:22.574Z,95148.28
2018-12-20T03:38:51.781Z,95146.19
2018-12-20T03:41:20.961Z,95146.03
2018-12-20T03:43:50.020Z,95145.39
2018-12-20T03:46:19.027Z,95145.24
2018-12-20T03:48:48.064Z,95146.03
2018-12-20T03:51:17.295Z,95147.77
2018-12-20T03:53:46.194Z,95148.06
2018-12-20T03:56:15.135Z,95151.41
2018-12-20T03:58:44.114Z,95153.46
2018-12-20T04:01:13.113Z,95151.05
2018-12-20T04:03:42.186Z,95149.14
2018-12-20T04:06:11.413Z,95150.28
2018-12-20T04:08:40.433Z,95148.88
2018-12-20T04:11:09.458Z,95149.83
2018-12-20T04:13:38.515Z,95149.83
2018-12-20T04:16:07.504Z,95152.48
2018-12-20T04:18:36.409Z,95154.03
2018-12-20T04:21:05.488Z,95151.52
2018-12-20T04:23:35.779Z,95150.45
2018-12-20T04:26:04.911Z,95155.66
2018-12-20T04:28:33.860Z,95154.51
2018-12-20T04:31:03.302Z,95161.17
2018-12-20T04:33:33.748Z,95162.20
2018-12-20T04:36:02.867Z,95158.41
2018-12-20T04:38:31.905Z,95163.16
2018-12-20T04:41:00.930Z,95165.84
2018-12-20T04:43:29.882Z,95163.95
2018-12-20T04:45:58.964Z,95171.95
2018-12-20T04:48:28.148Z,95167.15
2018-12-20T04:50:57.278Z,95171.39
2018-12-20T04:53:26.320Z,95176.47
2018-12-20T04:55:55.566Z,95167.27
2018-12-20T04:58:24.805Z,95165.84
2018-12-20T05:00:53.898Z,95166.95
2018-12-20T05:03:23.129Z,95168.37
2018-12-20T05:05:52.089Z,95175.86
2018-12-20T05:08:21.220Z,95172.23
2018-12-20T05:10:50.622Z,95175.86
2018-12-20T05:13:19.970Z,95180.63
2018-12-20T05:15:56.003Z,95186.50
2018-12-20T05:18:20.181Z,95185.37
2018-12-20T05:20:49.214Z,95189.21
2018-12-20T05:23:18.328Z,95186.16
2018-12-20T05:25:47.515Z,95186.30
2018-12-20T05:28:16.785Z,95191.23
2018-12-20T05:30:46.156Z,95192.22
2018-12-20T05:33:15.071Z,95195.89
2018-12-20T05:35:44.410Z,95193.98
2018-12-20T05:38:13.731Z,95196.83
2018-12-20T05:40:43.062Z,95194.44
2018-12-20T05:43:12.098Z,95187.33
2018-12-20T05:45:41.590Z,95198.78
2018-12-20T05:48:10.735Z,95201.94
2018-12-20T05:50:39.914Z,95200.66
2018-12-20T05:53:09.306Z,95207.78
2018-12-20T05:55:38.315Z,95210.02
2018-12-20T05:58:08.344Z,95213.03
2018-12-20T06:00:37.462Z,95212.50
2018-12-20T06:03:06.593Z,95216.63
2018-12-20T06:05:35.806Z,95219.13
2018-12-20T06:08:04.895Z,95222.42
2018-12-20T06:10:35.102Z,95219.86
2018-12-20T06:13:04.478Z,95217.33
2018-12-20T06:18:10.318Z,95223.99
2018-12-20T06:20:39.530Z,95236.80
2018-12-20T06:23:08.604Z,95229.16
2018-12-20T06:25:37.607Z,95231.20
2018-12-20T06:28:07.476Z,95229.76
2018-12-20T06:30:36.414Z,95237.62
2018-12-20T06:33:05.509Z,95241.12
2018-12-20T06:35:34.581Z,95238.28
2018-12-20T06:38:03.672Z,95248.37
2018-12-20T06:40:32.719Z,95245.33
2018-12-20T06:43:01.590Z,95248.52
2018-12-20T06:45:30.827Z,95248.62
2018-12-20T06:47:59.776Z,95245.92
2018-12-20T06:50:28.713Z,95258.48
2018-12-20T06:52:58.695Z,95258.41
2018-12-20T06:55:27.618Z,95256.45
2018-12-20T06:57:56.546Z,95261.64
2018-12-20T07:00:25.508Z,95254.98
2018-12-20T07:02:54.458Z,95259.26
2018-12-20T07:05:24.207Z,95254.05
2018-12-20T07:07:53.180Z,95255.78
2018-12-20T07:10:22.078Z,95248.33
2018-12-20T07:12:51.069Z,95248.17
2018-12-20T07:15:20.782Z,95246.72
2018-12-20T07:17:49.667Z,95245.94
2018-12-20T07:20:18.767Z,95254.03
2018-12-20T07:22:47.761Z,95251.80
2018-12-20T07:25:16.735Z,95256.84
2018-12-20T07:27:45.973Z,95255.58
2018-12-20T07:30:14.958Z,95260.78
2018-12-20T07:32:43.844Z,95263.64
2018-12-20T07:35:12.945Z,95267.53
2018-12-20T07:37:41.794Z,95267.70
2018-12-20T07:40:11.094Z,95265.17
2018-12-20T07:42:40.087Z,95264.84
2018-12-20T07:45:09.721Z,95261.36
2018-12-20T07:47:38.614Z,95261.58
2018-12-20T07:50:09.249Z,95269.50
2018-12-20T07:52:38.134Z,95271.61
2018-12-20T07:55:07.190Z,95274.66
2018-12-20T07:57:36.123Z,95268.75
2018-12-20T08:00:06.611Z,95271.62
2018-12-20T08:02:35.769Z,95269.30
2018-12-20T08:05:04.797Z,95277.84
2018-12-20T08:07:33.850Z,95271.80
2018-12-20T08:10:02.993Z,95271.84
2018-12-20T08:12:31.982Z,95281.55
2018-12-20T08:15:01.452Z,95276.48
2018-12-20T08:17:30.884Z,95280.12
2018-12-20T08:19:59.815Z,95289.69
2018-12-20T08:22:28.689Z,95289.07
2018-12-20T08:24:57.705Z,95296.39
2018-12-20T08:27:26.591Z,95292.95
2018-12-20T08:29:55.672Z,95296.39
2018-12-20T08:32:24.623Z,95295.48
2018-12-20T08:34:53.747Z,95300.26
2018-12-20T08:37:22.737Z,95307.30
2018-12-20T08:39:51.719Z,95314.50
2018-12-20T08:42:20.866Z,95308.91
2018-12-20T08:44:50.305Z,95311.44
2018-12-20T08:47:19.243Z,95310.95
2018-12-20T08:49:48.230Z,95314.53
2018-12-20T08:52:17.215Z,95319.91
2018-12-20T08:54:46.178Z,95323.53
2018-12-20T08:57:15.117Z,95320.77
2018-12-20T08:59:44.108Z,95319.25
2018-12-20T09:02:13.165Z,95327.45
2018-12-20T09:04:42.181Z,95331.23
2018-12-20T09:07:11.185Z,95334.44
2018-12-20T09:09:40.087Z,95330.91
2018-12-20T09:12:09.002Z,95327.47
2018-12-20T09:14:38.030Z,95342.31
2018-12-20T09:17:07.071Z,95339.77
2018-12-20T09:19:36.021Z,95337.18
2018-12-20T09:22:05.048Z,95338.58
2018-12-20T09:24:35.025Z,95335.89
2018-12-20T09:27:04.178Z,95340.27
2018-12-20T09:29:33.130Z,95343.91
2018-12-20T09:32:02.083Z,95343.00
2018-12-20T09:34:31.138Z,95348.09
2018-12-20T09:37:00.239Z,95348.19
2018-12-20T09:39:29.235Z,95342.63
2018-12-20T09:41:58.114Z,95340.41
2018-12-20T09:44:27.083Z,95347.40
2018-12-20T09:47:02.325Z,95340.88
2018-12-20T09:49:31.305Z,95338.33
2018-12-20T09:52:00.280Z,95334.96
2018-12-20T09:54:29.261Z,95339.34
2018-12-20T09:56:58.177Z,95339.27
2018-12-20T09:59:27.253Z,95344.69
2018-12-20T10:01:56.239Z,95338.16
2018-12-20T10:04:25.253Z,95353.27
2018-12-20T10:06:54.411Z,95332.12
2018-12-20T10:09:23.637Z,95341.00
2018-12-20T10:11:52.611Z,95340.06
2018-12-20T10:14:21.543Z,95341.65
2018-12-20T10:16:50.465Z,95349.77
2018-12-20T10:19:19.408Z,95342.39
2018-12-20T10:21:48.322Z,95336.16
2018-12-20T10:24:17.333Z,95337.58
2018-12-20T10:26:46.271Z,95336.39
2018-12-20T10:29:15.292Z,95333.62
2018-12-20T10:31:44.239Z,95329.47
2018-12-20T10:34:13.191Z,95341.52
2018-12-20T10:36:42.065Z,95336.49
2018-12-20T10:39:11.070Z,95329.16
2018-12-20T10:41:40.023Z,95329.11
2018-12-20T10:44:08.950Z,95340.56
2018-12-20T10:46:38.095Z,95332.74
2018-12-20T10:49:07.054Z,95344.23
2018-12-20T10:51:35.991Z,95361.25
2018-12-20T10:54:04.951Z,95328.56
2018-12-20T10:56:33.829Z,95330.72
2018-12-20T10:59:03.426Z,95329.20
2018-12-20T11:01:37.638Z,95320.48
2018-12-20T11:04:12.282Z,95328.30
2018-12-20T11:06:46.545Z,95313.64
2018-12-20T11:09:20.962Z,95301.92
2018-12-20T11:11:55.268Z,95317.39
2018-12-20T11:14:24.331Z,95318.72
2018-12-20T11:16:53.373Z,95324.41
2018-12-20T11:19:22.253Z,95316.44
2018-12-20T11:21:51.213Z,95318.66
2018-12-20T11:24:20.216Z,95329.80
2018-12-20T11:26:49.245Z,95337.30
2018-12-20T11:29:18.223Z,95304.81
2018-12-20T11:31:47.197Z,95311.41
2018-12-20T11:34:16.074Z,95307.44
2018-12-20T11:36:45.081Z,95312.50
2018-12-20T11:39:13.997Z,95318.95
2018-12-20T11:41:42.890Z,95336.30
2018-12-20T11:44:11.798Z,95306.63
2018-12-20T11:46:40.861Z,95303.97
2018-12-20T11:49:09.890Z,95300.34
2018-12-20T11:51:38.943Z,95308.59
2018-12-20T11:54:07.999Z,95307.43
2018-12-20T11:56:36.941Z,95310.91
2018-12-20T11:59:06.036Z,95314.80
2018-12-20T12:01:34.969Z,95323.05
2018-12-20T12:04:04.033Z,95311.90
2018-12-20T12:06:33.027Z,95309.79
2018-12-20T12:09:01.903Z,95310.47
2018-12-20T12:11:31.182Z,95312.08
2018-12-20T12:14:00.096Z,95317.22
2018-12-20T12:16:28.999Z,95308.59
2018-12-20T12:18:58.125Z,95315.11
2018-12-20T12:21:27.159Z,95316.55
2018-12-20T12:23:56.097Z,95307.29
2018-12-20T12:26:25.045Z,95302.08
2018-12-20T12:28:54.099Z,95304.40
2018-12-20T12:31:23.010Z,95304.54
2018-12-20T12:33:52.146Z,95306.58
2018-12-20T12:36:21.025Z,95305.95
2018-12-20T12:38:50.000Z,95304.74
2018-12-20T12:41:18.901Z,95291.47
2018-12-20T12:43:50.938Z,95296.48
2018-12-20T12:46:18.765Z,95302.89
2018-12-20T12:48:47.652Z,95293.34
2018-12-20T12:51:17.476Z,95293.55
2018-12-20T12:53:46.411Z,95294.48
2018-12-20T12:56:15.598Z,95293.55
2018-12-20T12:58:44.623Z,95288.47
2018-12-20T13:01:13.641Z,95291.86
2018-12-20T13:03:42.606Z,95287.80
2018-12-20T13:06:11.559Z,95288.99
2018-12-20T13:08:40.698Z,95281.23
2018-12-20T13:11:10.650Z,95272.53
2018-12-20T13:13:39.610Z,95291.16
2018-12-20T13:16:08.667Z,95280.78
2018-12-20T13:18:37.651Z,95292.27
2018-12-20T13:21:06.584Z,95292.98
2018-12-20T13:23:35.619Z,95295.55
2018-12-20T13:26:04.659Z,95291.34
2018-12-20T13:28:35.548Z,95284.64
2018-12-20T13:31:04.606Z,95286.28
2018-12-20T13:33:33.627Z,95285.00
2018-12-20T13:36:03.075Z,95283.15
2018-12-20T13:38:32.339Z,95296.27
2018-12-20T13:41:01.471Z,95296.15
2018-12-20T13:43:31.235Z,95289.59
2018-12-20T13:46:00.350Z,95294.34
2018-12-20T13:48:29.263Z,95303.32
2018-12-20T13:50:58.339Z,95309.12
2018-12-20T13:53:27.247Z,95301.70
2018-12-20T13:55:56.173Z,95297.11
2018-12-20T13:58:25.163Z,95303.91
2018-12-20T14:00:54.091Z,95309.33
2018-12-20T14:03:23.126Z,95314.30
2018-12-20T14:05:52.026Z,95317.38
2018-12-20T14:08:21.232Z,95309.56
2018-12-20T14:10:50.209Z,95322.13
2018-12-20T14:13:19.363Z,95311.33
2018-12-20T14:15:48.407Z,95318.55
2018-12-20T14:18:17.424Z,95321.74
2018-12-20T14:20:46.488Z,95314.15
2018-12-20T14:23:15.421Z,95308.00
2018-12-20T14:25:44.352Z,95302.53
2018-12-20T14:28:13.391Z,95307.27
2018-12-20T14:30:42.350Z,95308.98
2018-12-20T14:33:11.288Z,95307.67
2018-12-20T14:35:40.456Z,95311.83
2018-12-20T14:38:09.427Z,95313.47
2018-12-20T14:40:38.585Z,95310.52
2018-12-20T14:43:07.536Z,95313.50
2018-12-20T14:45:36.458Z,95312.85
2018-12-20T14:48:05.501Z,95315.59
2018-12-20T14:50:34.558Z,95320.78
2018-12-20T14:53:03.495Z,95326.73
2018-12-20T14:55:32.430Z,95330.16
2018-12-20T14:58:01.413Z,95327.00
2018-12-20T15:00:30.351Z,95332.44
2018-12-20T15:02:59.379Z,95332.64
2018-12-20T15:05:28.251Z,95329.47
2018-12-20T15:07:57.275Z,95339.42
2018-12-20T15:10:26.233Z,95346.30
2018-12-20T15:12:55.162Z,95347.62
2018-12-20T15:15:24.026Z,95338.40
2018-12-20T15:17:53.066Z,95340.02
2018-12-20T15:20:22.018Z,95340.70
2018-12-20T15:22:51.038Z,95339.42
2018-12-20T15:25:20.016Z,95342.13
2018-12-20T15:27:48.949Z,95350.58
2018-12-20T15:30:17.827Z,95351.20
2018-12-20T15:32:46.889Z,95353.91
2018-12-20T15:35:15.954Z,95349.77
2018-12-20T15:37:44.881Z,95353.75
2018-12-20T15:40:13.932Z,95355.03
2018-12-20T15:42:42.960Z,95361.55
2018-12-20T15:45:11.990Z,95362.67
2018-12-20T15:47:41.099Z,95362.67
2018-12-20T15:50:12.181Z,95369.35
2018-12-20T15:52:41.261Z,95365.69
2018-12-20T15:55:10.142Z,95369.83
2018-12-20T15:57:39.392Z,95371.90
2018-12-20T16:00:10.079Z,95372.38
2018-12-20T16:02:40.096Z,95368.55
2018-12-20T16:05:09.407Z,95376.50
2018-12-20T16:07:38.307Z,95375.08
2018-12-20T16:10:09.360Z,95381.13
2018-12-20T16:12:38.527Z,95378.14
2018-12-20T16:15:07.854Z,95380.20
2018-12-20T16:17:37.854Z,95380.65
2018-12-20T16:20:08.105Z,95374.92
2018-12-20T16:22:37.987Z,95379.86
2018-12-20T16:25:08.348Z,95380.02
2018-12-20T16:27:37.242Z,95371.45
2018-12-20T16:30:08.579Z,95381.15
2018-12-20T16:32:37.601Z,95377.65
2018-12-20T16:35:08.031Z,95383.67
2018-12-20T16:37:36.962Z,95380.97
2018-12-20T16:40:06.754Z,95385.11
2018-12-20T16:42:35.894Z,95388.92
2018-12-20T16:45:06.270Z,95387.51
2018-12-20T16:47:35.194Z,95385.75
2018-12-20T16:50:05.528Z,95382.10
2018-12-20T16:52:34.517Z,95383.84
2018-12-20T16:55:04.382Z,95388.77
2018-12-20T16:57:33.799Z,95386.88
2018-12-20T17:00:03.291Z,95382.09
2018-12-20T17:02:32.262Z,95388.61
2018-12-20T17:05:01.289Z,95394.83
2018-12-20T17:07:30.333Z,95392.09
2018-12-20T17:09:59.309Z,95393.08
2018-12-20T17:12:28.241Z,95398.47
2018-12-20T17:14:57.195Z,95393.23
2018-12-20T17:17:26.278Z,95398.45
2018-12-20T17:19:55.256Z,95394.64
2018-12-20T17:22:24.290Z,95392.91
2018-12-20T17:24:53.241Z,95398.48
2018-12-20T17:27:22.243Z,95394.98
2018-12-20T17:29:51.262Z,95392.57
2018-12-20T17:32:20.236Z,95397.52
2018-12-20T17:34:49.315Z,95395.92
2018-12-20T17:37:18.466Z,95399.40
2018-12-20T17:39:47.382Z,95394.14
2018-12-20T17:42:16.366Z,95396.22
2018-12-20T17:44:45.504Z,95395.43
2018-12-20T17:47:14.475Z,95398.28
2018-12-20T17:49:43.429Z,95397.16
2018-12-20T17:52:12.371Z,95398.13
2018-12-20T17:54:41.365Z,95406.22
2018-12-20T17:57:10.438Z,95416.06
2018-12-20T17:59:39.369Z,95413.98
2018-12-20T18:02:08.762Z,95418.12
2018-12-20T18:04:37.758Z,95413.80
2018-12-20T18:07:06.825Z,95421.42
2018-12-20T18:09:35.816Z,95424.00
2018-12-20T18:12:04.949Z,95417.17
2018-12-20T18:14:33.822Z,95424.50
2018-12-20T18:17:03.542Z,95420.55
2018-12-20T18:19:39.042Z,95425.16
2018-12-20T18:22:03.459Z,95439.28
2018-12-20T18:24:32.549Z,95429.91
2018-12-20T18:27:02.318Z,95436.59
2018-12-20T18:29:31.237Z,95440.27
2018-12-20T18:32:00.161Z,95457.76
2018-12-20T18:34:29.128Z,95445.38
2018-12-20T18:36:58.040Z,95434.09
2018-12-20T18:39:26.986Z,95437.75
2018-12-20T18:41:55.879Z,95439.66
2018-12-20T18:44:24.808Z,95440.59
2018-12-20T18:46:53.667Z,95446.30
2018-12-20T18:49:22.619Z,95450.46
2018-12-20T18:51:51.473Z,95450.30
2018-12-20T18:54:21.454Z,95452.20
2018-12-20T18:56:50.357Z,95457.10
2018-12-20T18:59:19.318Z,95458.98
2018-12-20T19:01:48.242Z,95460.93
2018-12-20T19:04:17.483Z,95458.72
2018-12-20T19:06:46.459Z,95471.77
2018-12-20T19:09:15.885Z,95451.27
2018-12-20T19:11:44.779Z,95448.09
2018-12-20T19:14:13.724Z,95451.26
2018-12-20T19:16:42.670Z,95482.78
2018-12-20T19:19:11.638Z,95454.00
2018-12-20T19:21:40.543Z,95455.58
2018-12-20T19:24:09.558Z,95457.94
2018-12-20T19:26:38.661Z,95457.16
2018-12-20T19:29:07.703Z,95462.08
2018-12-20T19:31:37.045Z,95462.55
2018-12-20T19:34:06.982Z,95471.44
2018-12-20T19:36:36.151Z,95465.27
2018-12-20T19:39:08.352Z,95470.81
2018-12-20T19:41:37.317Z,95472.41
2018-12-20T19:44:06.257Z,95485.77
2018-12-20T19:46:35.305Z,95463.81
2018-12-20T19:49:04.530Z,95458.59
2018-12-20T19:51:33.566Z,95477.98
2018-12-20T19:54:02.604Z,95465.27
2018-12-20T19:56:31.534Z,95467.02
2018-12-20T19:59:00.477Z,95466.05
2018-12-20T20:01:29.376Z,95463.48
2018-12-20T20:03:58.406Z,95473.52
2018-12-20T20:06:27.414Z,95471.92
2018-12-20T20:08:56.498Z,95470.97
2018-12-20T20:11:25.454Z,95471.77
2018-12-20T20:13:54.721Z,95463.80
2018-12-20T20:16:23.645Z,95462.70
2018-12-20T20:18:52.673Z,95466.97
2018-12-20T20:21:21.617Z,95473.14
2018-12-20T20:23:50.565Z,95468.55
2018-12-20T20:26:19.430Z,95479.17
2018-12-20T20:28:48.410Z,95477.12
2018-12-20T20:31:17.332Z,95474.56
2018-12-20T20:33:46.206Z,95479.46
2018-12-20T20:36:15.105Z,95474.56
2018-12-20T20:38:44.042Z,95476.94
2018-12-20T20:41:12.999Z,95474.70
2018-12-20T20:43:41.933Z,95478.36
2018-12-20T20:46:10.854Z,95488.49
2018-12-20T20:48:40.866Z,95493.23
2018-12-20T20:51:09.882Z,95496.58
2018-12-20T20:53:38.763Z,95496.42
2018-12-20T20:56:07.985Z,95497.56
2018-12-20T20:58:36.911Z,95491.87
2018-12-20T21:01:05.918Z,95495.63
2018-12-20T21:03:34.902Z,95496.51
2018-12-20T21:06:03.908Z,95489.51
2018-12-20T21:08:32.932Z,95489.33
2018-12-20T21:11:01.839Z,95493.16
2018-12-20T21:13:30.834Z,95501.81
2018-12-20T21:15:59.817Z,95500.96
2018-12-20T21:18:29.250Z,95495.76
2018-12-20T21:20:58.135Z,95503.38
2018-12-20T21:23:27.342Z,95490.80
2018-12-20T21:25:56.266Z,95495.87
2018-12-20T21:28:25.284Z,95495.09
2018-12-20T21:30:54.305Z,95491.80
2018-12-20T21:33:23.325Z,95499.39
2018-12-20T21:35:52.331Z,95494.48
2018-12-20T21:38:21.262Z,95496.23
2018-12-20T21:40:50.263Z,95492.62
2018-12-20T21:43:19.216Z,95501.34
2018-12-20T21:45:48.189Z,95494.39
2018-12-20T21:48:20.314Z,95498.20
2018-12-20T21:50:49.274Z,95497.44
2018-12-20T21:53:18.203Z,95497.25
2018-12-20T21:55:47.139Z,95505.85
2018-12-20T21:58:16.457Z,95502.52
2018-12-20T22:00:45.418Z,95511.23
2018-12-20T22:03:14.474Z,95509.34
2018-12-20T22:05:43.400Z,95507.72
2018-12-20T22:08:12.463Z,95506.95
2018-12-20T22:10:41.375Z,95518.70
2018-12-20T22:13:10.278Z,95522.84
2018-12-20T22:15:39.207Z,95529.88
2018-12-20T22:18:08.157Z,95527.36
2018-12-20T22:20:37.206Z,95523.55
2018-12-20T22:23:06.146Z,95531.49
2018-12-20T22:25:35.182Z,95537.25
2018-12-20T22:28:04.070Z,95530.91
2018-12-20T22:30:33.086Z,95529.31
2018-12-20T22:33:01.964Z,95528.87
2018-12-20T22:35:30.871Z,95532.51
2018-12-20T22:37:59.777Z,95534.25
2018-12-20T22:40:28.695Z,95535.17
2018-12-20T22:42:57.653Z,95537.72
2018-12-20T22:45:26.610Z,95538.02
2018-12-20T22:47:55.537Z,95527.60
2018-12-20T22:50:24.565Z,95521.67
2018-12-20T22:52:53.432Z,95531.48
2018-12-20T22:55:22.578Z,95531.77
2018-12-20T22:57:51.531Z,95529.52
2018-12-20T23:00:20.502Z,95536.96
2018-12-20T23:02:49.595Z,95528.40
2018-12-20T23:05:18.501Z,95528.66
2018-12-20T23:07:47.692Z,95521.48
2018-12-20T23:10:16.735Z,95521.59
2018-12-20T23:12:45.662Z,95521.53
2018-12-20T23:15:14.525Z,95519.87
2018-12-20T23:17:43.509Z,95531.70
2018-12-20T23:20:12.558Z,95521.88
2018-12-20T23:22:41.643Z,95520.36
2018-12-20T23:25:10.571Z,95518.91
2018-12-20T23:27:39.432Z,95523.61
2018-12-20T23:30:08.545Z,95515.77
2018-12-20T23:32:37.630Z,95515.87
2018-12-20T23:35:06.683Z,95517.27
2018-12-20T23:37:35.749Z,95515.56
2018-12-20T23:40:05.049Z,95518.66
2018-12-20T23:42:33.978Z,95522.14
2018-12-20T23:45:02.955Z,95524.92
2018-12-20T23:47:31.870Z,95523.20
2018-12-20T23:50:00.787Z,95522.38
2018-12-20T23:52:29.750Z,95531.03
2018-12-20T23:54:58.714Z,95524.36
2018-12-20T23:57:27.594Z,95521.13
2018-12-20T23:59:56.500Z,95521.13
